sensor_id;sensor_type;location;lat;lon;timestamp;temperature;humidity
1956;DHT22;978;48.314;11.562;2023-05-03T02:45:53;20.70;74.80
1956;DHT22;978;48.314;11.562;2023-05-03T02:48:21;20.70;74.80
1956;DHT22;978;48.314;11.562;2023-05-03T02:50:49;20.80;74.80
1956;DHT22;978;48.314;11.562;2023-05-03T02:53:17;20.70;74.80
1956;DHT22;978;48.314;11.562;2023-05-03T02:55:44;20.80;74.80
1956;DHT22;978;48.314;11.562;2023-05-03T02:58:11;20.70;74.70
1956;DHT22;978;48.314;11.562;2023-05-03T03:00:37;20.70;74.70
1956;DHT22;978;48.314;11.562;2023-05-03T03:03:05;20.70;74.70
1956;DHT22;978;48.314;11.562;2023-05-03T03:05:32;20.70;74.70
1956;DHT22;978;48.314;11.562;2023-05-03T03:07:59;20.80;74.70
1956;DHT22;978;48.314;11.562;2023-05-03T03:10:26;20.70;74.60
1956;DHT22;978;48.314;11.562;2023-05-03T03:12:54;20.70;74.60
1956;DHT22;978;48.314;11.562;2023-05-03T03:15:21;20.80;74.70
1956;DHT22;978;48.314;11.562;2023-05-03T03:17:51;20.70;74.60
1956;DHT22;978;48.314;11.562;2023-05-03T03:20:25;20.70;74.50
1956;DHT22;978;48.314;11.562;2023-05-03T03:22:54;20.70;74.50
1956;DHT22;978;48.314;11.562;2023-05-03T03:25:22;20.70;74.50
1956;DHT22;978;48.314;11.562;2023-05-03T03:27:50;20.80;74.50
1956;DHT22;978;48.314;11.562;2023-05-03T03:30:18;20.70;74.40
1956;DHT22;978;48.314;11.562;2023-05-03T03:32:49;20.70;74.50
1956;DHT22;978;48.314;11.562;2023-05-03T03:35:19;20.70;74.40
1956;DHT22;978;48.314;11.562;2023-05-03T03:37:49;20.70;74.40
1956;DHT22;978;48.314;11.562;2023-05-03T03:40:16;20.70;74.40
1956;DHT22;978;48.314;11.562;2023-05-03T03:42:43;20.70;74.40
1956;DHT22;978;48.314;11.562;2023-05-03T03:45:10;20.70;74.40
1956;DHT22;978;48.314;11.562;2023-05-03T03:47:37;20.70;74.40
1956;DHT22;978;48.314;11.562;2023-05-03T03:50:05;20.70;74.40
1956;DHT22;978;48.314;11.562;2023-05-03T03:52:31;20.80;74.40
1956;DHT22;978;48.314;11.562;2023-05-03T03:54:59;20.80;74.40
1956;DHT22;978;48.314;11.562;2023-05-03T03:57:27;20.80;74.40
1956;DHT22;978;48.314;11.562;2023-05-03T03:59:56;20.70;74.30
1956;DHT22;978;48.314;11.562;2023-05-03T04:02:24;20.70;74.30
1956;DHT22;978;48.314;11.562;2023-05-03T04:04:53;20.80;74.40
1956;DHT22;978;48.314;11.562;2023-05-03T04:07:28;20.80;74.40
1956;DHT22;978;48.314;11.562;2023-05-03T04:09:56;20.70;74.40
1956;DHT22;978;48.314;11.562;2023-05-03T04:12:29;20.70;74.40
1956;DHT22;978;48.314;11.562;2023-05-03T04:14:57;20.80;74.40
1956;DHT22;978;48.314;11.562;2023-05-03T04:17:25;20.70;74.30
1956;DHT22;978;48.314;11.562;2023-05-03T04:19:55;20.70;74.30
1956;DHT22;978;48.314;11.562;2023-05-03T04:22:23;20.70;74.30
1956;DHT22;978;48.314;11.562;2023-05-03T04:24:51;20.70;74.30
1956;DHT22;978;48.314;11.562;2023-05-03T04:27:20;20.70;74.80
1956;DHT22;978;48.314;11.562;2023-05-03T04:29:56;20.80;74.20
1956;DHT22;978;48.314;11.562;2023-05-03T04:32:25;20.70;74.20
1956;DHT22;978;48.314;11.562;2023-05-03T04:35:01;20.70;74.20
1956;DHT22;978;48.314;11.562;2023-05-03T04:37:29;20.70;74.10
1956;DHT22;978;48.314;11.562;2023-05-03T04:39:57;20.70;74.10
1956;DHT22;978;48.314;11.562;2023-05-03T04:42:25;20.70;74.10
1956;DHT22;978;48.314;11.562;2023-05-03T04:44:57;20.70;74.10
1956;DHT22;978;48.314;11.562;2023-05-03T04:47:24;20.70;74.10
1956;DHT22;978;48.314;11.562;2023-05-03T04:49:52;20.70;74.10
1956;DHT22;978;48.314;11.562;2023-05-03T04:52:23;20.70;74.10
1956;DHT22;978;48.314;11.562;2023-05-03T04:54:52;20.70;74.10
1956;DHT22;978;48.314;11.562;2023-05-03T04:57:19;20.70;74.10
1956;DHT22;978;48.314;11.562;2023-05-03T04:59:46;20.70;74.10
1956;DHT22;978;48.314;11.562;2023-05-03T05:02:14;20.70;74.10
1956;DHT22;978;48.314;11.562;2023-05-03T05:04:41;20.70;74.10
1956;DHT22;978;48.314;11.562;2023-05-03T05:07:08;20.70;74.10
1956;DHT22;978;48.314;11.562;2023-05-03T05:09:35;20.70;74.10
1956;DHT22;978;48.314;11.562;2023-05-03T05:12:01;20.70;74.10
1956;DHT22;978;48.314;11.562;2023-05-03T05:14:30;20.70;74.10
1956;DHT22;978;48.314;11.562;2023-05-03T05:16:58;20.70;74.10
1956;DHT22;978;48.314;11.562;2023-05-03T05:19:27;20.70;74.10
1956;DHT22;978;48.314;11.562;2023-05-03T05:21:55;20.70;74.10
1956;DHT22;978;48.314;11.562;2023-05-03T05:24:23;20.70;74.10
1956;DHT22;978;48.314;11.562;2023-05-03T05:26:50;20.70;74.10
1956;DHT22;978;48.314;11.562;2023-05-03T05:29:19;20.70;74.10
1956;DHT22;978;48.314;11.562;2023-05-03T05:31:46;20.70;74.10
1956;DHT22;978;48.314;11.562;2023-05-03T05:34:13;20.70;74.10
1956;DHT22;978;48.314;11.562;2023-05-03T05:36:41;20.70;74.10
1956;DHT22;978;48.314;11.562;2023-05-03T05:39:08;20.70;74.10
1956;DHT22;978;48.314;11.562;2023-05-03T05:41:35;20.70;74.10
1956;DHT22;978;48.314;11.562;2023-05-03T05:44:02;20.70;74.10
1956;DHT22;978;48.314;11.562;2023-05-03T05:46:30;20.70;74.10
1956;DHT22;978;48.314;11.562;2023-05-03T05:49:00;20.70;74.10
1956;DHT22;978;48.314;11.562;2023-05-03T05:51:27;20.70;74.10
1956;DHT22;978;48.314;11.562;2023-05-03T05:54:08;20.70;74.10
1956;DHT22;978;48.314;11.562;2023-05-03T05:56:35;20.70;74.10
1956;DHT22;978;48.314;11.562;2023-05-03T05:59:03;20.70;74.10
1956;DHT22;978;48.314;11.562;2023-05-03T06:01:32;20.70;74.10
1956;DHT22;978;48.314;11.562;2023-05-03T06:03:58;20.70;74.10
1956;DHT22;978;48.314;11.562;2023-05-03T06:06:26;20.70;74.10
1956;DHT22;978;48.314;11.562;2023-05-03T06:08:54;20.70;74.10
1956;DHT22;978;48.314;11.562;2023-05-03T06:11:26;20.70;74.10
1956;DHT22;978;48.314;11.562;2023-05-03T06:13:55;20.70;74.10
1956;DHT22;978;48.314;11.562;2023-05-03T06:16:22;20.70;74.10
1956;DHT22;978;48.314;11.562;2023-05-03T06:18:51;20.70;74.10
1956;DHT22;978;48.314;11.562;2023-05-03T06:21:18;20.80;74.20
1956;DHT22;978;48.314;11.562;2023-05-03T06:23:45;20.70;74.10
1956;DHT22;978;48.314;11.562;2023-05-03T06:26:11;20.70;74.70
1956;DHT22;978;48.314;11.562;2023-05-03T06:28:40;20.70;74.10
1956;DHT22;978;48.314;11.562;2023-05-03T06:31:06;20.70;74.10
1956;DHT22;978;48.314;11.562;2023-05-03T06:33:34;20.70;74.10
1956;DHT22;978;48.314;11.562;2023-05-03T06:36:01;20.70;74.10
1956;DHT22;978;48.314;11.562;2023-05-03T06:38:28;20.70;74.10
1956;DHT22;978;48.314;11.562;2023-05-03T06:40:56;20.70;74.10
1956;DHT22;978;48.314;11.562;2023-05-03T06:43:23;20.70;74.10
1956;DHT22;978;48.314;11.562;2023-05-03T06:45:51;20.70;74.10
1956;DHT22;978;48.314;11.562;2023-05-03T06:48:18;20.70;74.10
1956;DHT22;978;48.314;11.562;2023-05-03T06:50:45;20.70;74.10
1956;DHT22;978;48.314;11.562;2023-05-03T06:53:12;20.70;74.10
1956;DHT22;978;48.314;11.562;2023-05-03T06:55:42;20.70;74.10
1956;DHT22;978;48.314;11.562;2023-05-03T06:58:09;20.70;74.10
1956;DHT22;978;48.314;11.562;2023-05-03T07:00:36;20.70;74.10
1956;DHT22;978;48.314;11.562;2023-05-03T07:03:07;20.70;74.10
1956;DHT22;978;48.314;11.562;2023-05-03T07:05:33;20.70;74.10
1956;DHT22;978;48.314;11.562;2023-05-03T07:08:02;20.70;74.10
1956;DHT22;978;48.314;11.562;2023-05-03T07:10:31;20.70;74.10
1956;DHT22;978;48.314;11.562;2023-05-03T07:12:59;20.70;74.10
1956;DHT22;978;48.314;11.562;2023-05-03T07:15:30;20.70;74.10
1956;DHT22;978;48.314;11.562;2023-05-03T07:17:59;20.70;74.10
1956;DHT22;978;48.314;11.562;2023-05-03T07:20:30;20.70;74.10
1956;DHT22;978;48.314;11.562;2023-05-03T07:22:58;20.70;74.10
1956;DHT22;978;48.314;11.562;2023-05-03T07:25:26;20.70;74.10
1956;DHT22;978;48.314;11.562;2023-05-03T07:27:53;20.70;74.10
1956;DHT22;978;48.314;11.562;2023-05-03T07:30:20;20.70;74.20
1956;DHT22;978;48.314;11.562;2023-05-03T07:32:47;20.70;74.20
1956;DHT22;978;48.314;11.562;2023-05-03T07:35:15;20.70;74.20
1956;DHT22;978;48.314;11.562;2023-05-03T07:37:43;20.70;74.10
1956;DHT22;978;48.314;11.562;2023-05-03T07:40:10;20.70;74.10
1956;DHT22;978;48.314;11.562;2023-05-03T07:42:38;20.70;74.20
1956;DHT22;978;48.314;11.562;2023-05-03T07:45:06;20.70;74.10
1956;DHT22;978;48.314;11.562;2023-05-03T07:47:33;20.70;74.20
1956;DHT22;978;48.314;11.562;2023-05-03T07:50:04;20.70;74.10
1956;DHT22;978;48.314;11.562;2023-05-03T07:52:36;20.70;74.20
1956;DHT22;978;48.314;11.562;2023-05-03T07:55:07;20.70;74.20
1956;DHT22;978;48.314;11.562;2023-05-03T07:57:34;20.70;74.20
1956;DHT22;978;48.314;11.562;2023-05-03T08:00:03;20.70;74.20
1956;DHT22;978;48.314;11.562;2023-05-03T08:02:36;20.70;74.20
1956;DHT22;978;48.314;11.562;2023-05-03T08:05:06;20.70;74.20
1956;DHT22;978;48.314;11.562;2023-05-03T08:07:35;20.70;74.30
1956;DHT22;978;48.314;11.562;2023-05-03T08:10:03;20.70;74.20
1956;DHT22;978;48.314;11.562;2023-05-03T08:12:32;20.70;74.20
1956;DHT22;978;48.314;11.562;2023-05-03T08:15:01;20.70;74.20
1956;DHT22;978;48.314;11.562;2023-05-03T08:17:29;20.70;74.30
1956;DHT22;978;48.314;11.562;2023-05-03T08:19:58;20.70;74.30
1956;DHT22;978;48.314;11.562;2023-05-03T08:22:33;20.70;74.20
1956;DHT22;978;48.314;11.562;2023-05-03T08:25:02;20.70;74.30
1956;DHT22;978;48.314;11.562;2023-05-03T08:27:30;20.70;74.30
1956;DHT22;978;48.314;11.562;2023-05-03T08:29:59;20.70;74.30
1956;DHT22;978;48.314;11.562;2023-05-03T08:32:28;20.70;74.30
1956;DHT22;978;48.314;11.562;2023-05-03T08:34:55;20.70;74.30
1956;DHT22;978;48.314;11.562;2023-05-03T08:37:22;20.70;74.30
1956;DHT22;978;48.314;11.562;2023-05-03T08:39:49;20.70;74.30
1956;DHT22;978;48.314;11.562;2023-05-03T08:42:15;20.70;74.40
1956;DHT22;978;48.314;11.562;2023-05-03T08:44:44;20.70;74.30
1956;DHT22;978;48.314;11.562;2023-05-03T08:47:14;20.70;74.30
1956;DHT22;978;48.314;11.562;2023-05-03T08:49:42;20.70;74.30
1956;DHT22;978;48.314;11.562;2023-05-03T08:52:13;20.70;74.30
1956;DHT22;978;48.314;11.562;2023-05-03T08:54:41;20.70;74.40
1956;DHT22;978;48.314;11.562;2023-05-03T08:57:10;20.70;74.30
1956;DHT22;978;48.314;11.562;2023-05-03T08:59:47;20.70;74.30
1956;DHT22;978;48.314;11.562;2023-05-03T09:02:16;20.70;74.30
1956;DHT22;978;48.314;11.562;2023-05-03T09:04:44;20.70;74.30
1956;DHT22;978;48.314;11.562;2023-05-03T09:07:12;20.80;74.40
1956;DHT22;978;48.314;11.562;2023-05-03T09:09:41;20.70;74.40
1956;DHT22;978;48.314;11.562;2023-05-03T09:12:09;20.70;74.40
1956;DHT22;978;48.314;11.562;2023-05-03T09:14:43;20.70;74.40
1956;DHT22;978;48.314;11.562;2023-05-03T09:17:16;20.70;74.40
1956;DHT22;978;48.314;11.562;2023-05-03T09:19:51;20.70;74.40
1956;DHT22;978;48.314;11.562;2023-05-03T09:22:19;20.70;74.40
1956;DHT22;978;48.314;11.562;2023-05-03T09:24:50;20.70;74.40
1956;DHT22;978;48.314;11.562;2023-05-03T09:27:18;20.70;74.40
1956;DHT22;978;48.314;11.562;2023-05-03T09:29:46;20.80;74.40
1956;DHT22;978;48.314;11.562;2023-05-03T09:32:13;20.70;74.40
1956;DHT22;978;48.314;11.562;2023-05-03T09:34:44;20.70;74.40
1956;DHT22;978;48.314;11.562;2023-05-03T09:37:12;20.70;74.40
1956;DHT22;978;48.314;11.562;2023-05-03T09:39:41;20.70;74.40
1956;DHT22;978;48.314;11.562;2023-05-03T09:42:13;20.70;74.40
1956;DHT22;978;48.314;11.562;2023-05-03T09:44:42;20.70;74.40
1956;DHT22;978;48.314;11.562;2023-05-03T09:47:11;20.70;74.40
1956;DHT22;978;48.314;11.562;2023-05-03T09:49:42;20.70;74.40
1956;DHT22;978;48.314;11.562;2023-05-03T09:52:10;20.70;75.10
1956;DHT22;978;48.314;11.562;2023-05-03T09:54:40;20.70;74.50
1956;DHT22;978;48.314;11.562;2023-05-03T09:57:07;20.70;74.50
1956;DHT22;978;48.314;11.562;2023-05-03T09:59:37;20.70;74.50
1956;DHT22;978;48.314;11.562;2023-05-03T10:02:05;20.70;74.50
1956;DHT22;978;48.314;11.562;2023-05-03T10:04:38;20.70;74.50
1956;DHT22;978;48.314;11.562;2023-05-03T10:07:11;20.70;74.50
1956;DHT22;978;48.314;11.562;2023-05-03T10:09:42;20.70;74.50
1956;DHT22;978;48.314;11.562;2023-05-03T10:12:11;20.70;74.50
1956;DHT22;978;48.314;11.562;2023-05-03T10:14:42;20.70;74.50
1956;DHT22;978;48.314;11.562;2023-05-03T10:17:15;20.80;74.60
1956;DHT22;978;48.314;11.562;2023-05-03T10:19:49;20.70;74.50
1956;DHT22;978;48.314;11.562;2023-05-03T10:22:18;20.70;74.50
1956;DHT22;978;48.314;11.562;2023-05-03T10:25:06;20.70;74.50
1956;DHT22;978;48.314;11.562;2023-05-03T10:27:40;20.70;74.50
1956;DHT22;978;48.314;11.562;2023-05-03T10:30:28;20.70;74.50
1956;DHT22;978;48.314;11.562;2023-05-03T10:32:57;20.70;74.60
1956;DHT22;978;48.314;11.562;2023-05-03T10:35:28;20.70;74.60
1956;DHT22;978;48.314;11.562;2023-05-03T10:37:57;20.70;74.50
1956;DHT22;978;48.314;11.562;2023-05-03T10:40:40;20.70;74.50
1956;DHT22;978;48.314;11.562;2023-05-03T10:46:32;20.70;74.60
1956;DHT22;978;48.314;11.562;2023-05-03T10:49:18;20.70;74.50
1956;DHT22;978;48.314;11.562;2023-05-03T10:51:45;20.70;74.60
1956;DHT22;978;48.314;11.562;2023-05-03T10:54:16;20.70;74.50
1956;DHT22;978;48.314;11.562;2023-05-03T10:56:48;20.70;74.60
1956;DHT22;978;48.314;11.562;2023-05-03T10:59:16;20.70;74.60
1956;DHT22;978;48.314;11.562;2023-05-03T11:01:48;20.70;74.50
1956;DHT22;978;48.314;11.562;2023-05-03T11:04:21;20.70;74.60
1956;DHT22;978;48.314;11.562;2023-05-03T11:06:50;20.70;74.60
1956;DHT22;978;48.314;11.562;2023-05-03T11:09:29;20.70;74.60
1956;DHT22;978;48.314;11.562;2023-05-03T11:11:56;20.70;74.60
1956;DHT22;978;48.314;11.562;2023-05-03T11:14:24;20.70;74.60
1956;DHT22;978;48.314;11.562;2023-05-03T11:16:54;20.70;74.60
1956;DHT22;978;48.314;11.562;2023-05-03T11:19:22;20.70;74.60
1956;DHT22;978;48.314;11.562;2023-05-03T11:21:53;20.70;74.60
1956;DHT22;978;48.314;11.562;2023-05-03T11:24:20;20.70;74.60
1956;DHT22;978;48.314;11.562;2023-05-03T11:26:46;20.70;74.60
1956;DHT22;978;48.314;11.562;2023-05-03T11:29:15;20.70;74.60
1956;DHT22;978;48.314;11.562;2023-05-03T11:31:46;20.70;74.60
1956;DHT22;978;48.314;11.562;2023-05-03T11:34:21;20.70;74.60
1956;DHT22;978;48.314;11.562;2023-05-03T11:36:49;20.70;74.60
1956;DHT22;978;48.314;11.562;2023-05-03T11:39:17;20.70;74.60
1956;DHT22;978;48.314;11.562;2023-05-03T11:41:44;20.70;74.60
1956;DHT22;978;48.314;11.562;2023-05-03T11:44:25;20.70;74.60
1956;DHT22;978;48.314;11.562;2023-05-03T11:46:54;20.70;74.60
1956;DHT22;978;48.314;11.562;2023-05-03T11:49:24;20.70;74.60
1956;DHT22;978;48.314;11.562;2023-05-03T11:51:51;20.70;74.60
1956;DHT22;978;48.314;11.562;2023-05-03T11:54:22;20.70;74.60
1956;DHT22;978;48.314;11.562;2023-05-03T11:56:54;20.70;74.60
1956;DHT22;978;48.314;11.562;2023-05-03T11:59:33;20.70;74.60
1956;DHT22;978;48.314;11.562;2023-05-03T12:02:00;20.70;74.60
1956;DHT22;978;48.314;11.562;2023-05-03T12:04:30;20.70;74.70
1956;DHT22;978;48.314;11.562;2023-05-03T12:06:57;20.70;74.70
1956;DHT22;978;48.314;11.562;2023-05-03T12:09:25;20.70;74.60
1956;DHT22;978;48.314;11.562;2023-05-03T12:11:53;20.70;74.60
1956;DHT22;978;48.314;11.562;2023-05-03T12:14:21;20.70;74.60
1956;DHT22;978;48.314;11.562;2023-05-03T12:16:53;20.70;74.60
1956;DHT22;978;48.314;11.562;2023-05-03T12:19:27;20.70;74.70
1956;DHT22;978;48.314;11.562;2023-05-03T12:21:56;20.70;74.10
1956;DHT22;978;48.314;11.562;2023-05-03T12:24:24;20.70;73.60
1956;DHT22;978;48.314;11.562;2023-05-03T12:26:55;20.70;73.30
1956;DHT22;978;48.314;11.562;2023-05-03T12:29:26;20.70;73.50
1956;DHT22;978;48.314;11.562;2023-05-03T12:31:56;20.70;74.10
1956;DHT22;978;48.314;11.562;2023-05-03T12:34:27;20.70;74.30
1956;DHT22;978;48.314;11.562;2023-05-03T12:36:57;20.70;74.40
1956;DHT22;978;48.314;11.562;2023-05-03T12:39:28;20.70;74.40
1956;DHT22;978;48.314;11.562;2023-05-03T12:41:55;20.70;74.40
1956;DHT22;978;48.314;11.562;2023-05-03T12:44:24;20.70;74.40
1956;DHT22;978;48.314;11.562;2023-05-03T12:46:52;20.70;74.40
1956;DHT22;978;48.314;11.562;2023-05-03T12:49:19;20.70;74.40
1956;DHT22;978;48.314;11.562;2023-05-03T12:51:46;20.70;74.30
1956;DHT22;978;48.314;11.562;2023-05-03T12:54:14;20.70;74.30
1956;DHT22;978;48.314;11.562;2023-05-03T12:56:41;20.70;74.30
1956;DHT22;978;48.314;11.562;2023-05-03T12:59:08;20.70;74.20
1956;DHT22;978;48.314;11.562;2023-05-03T13:01:36;20.70;74.20
1956;DHT22;978;48.314;11.562;2023-05-03T13:04:03;20.70;74.20
1956;DHT22;978;48.314;11.562;2023-05-03T13:06:30;20.70;74.20
1956;DHT22;978;48.314;11.562;2023-05-03T13:08:59;20.70;74.10
1956;DHT22;978;48.314;11.562;2023-05-03T13:11:29;20.70;74.10
1956;DHT22;978;48.314;11.562;2023-05-03T13:13:59;20.70;74.10
1956;DHT22;978;48.314;11.562;2023-05-03T13:16:27;20.70;74.10
1956;DHT22;978;48.314;11.562;2023-05-03T13:18:57;20.70;74.10
1956;DHT22;978;48.314;11.562;2023-05-03T13:21:24;20.70;74.00
1956;DHT22;978;48.314;11.562;2023-05-03T13:23:56;20.70;74.00
1956;DHT22;978;48.314;11.562;2023-05-03T13:26:24;20.70;74.00
1956;DHT22;978;48.314;11.562;2023-05-03T13:28:54;20.70;74.00
1956;DHT22;978;48.314;11.562;2023-05-03T13:31:23;20.70;74.00
1956;DHT22;978;48.314;11.562;2023-05-03T13:33:52;20.70;74.00
1956;DHT22;978;48.314;11.562;2023-05-03T13:36:19;20.70;74.00
1956;DHT22;978;48.314;11.562;2023-05-03T13:38:47;20.70;74.00
1956;DHT22;978;48.314;11.562;2023-05-03T13:41:14;20.70;74.00
1956;DHT22;978;48.314;11.562;2023-05-03T13:43:41;20.70;74.00
1956;DHT22;978;48.314;11.562;2023-05-03T13:46:09;20.70;74.00
1956;DHT22;978;48.314;11.562;2023-05-03T13:48:37;20.70;74.00
1956;DHT22;978;48.314;11.562;2023-05-03T13:51:06;20.70;74.00
1956;DHT22;978;48.314;11.562;2023-05-03T13:53:33;20.70;74.60
1956;DHT22;978;48.314;11.562;2023-05-03T13:56:01;20.70;73.90
1956;DHT22;978;48.314;11.562;2023-05-03T13:58:29;20.70;73.90
1956;DHT22;978;48.314;11.562;2023-05-03T14:00:59;20.70;73.90
1956;DHT22;978;48.314;11.562;2023-05-03T14:03:32;20.70;73.90
1956;DHT22;978;48.314;11.562;2023-05-03T14:06:01;20.70;73.90
1956;DHT22;978;48.314;11.562;2023-05-03T14:08:29;20.70;73.90
1956;DHT22;978;48.314;11.562;2023-05-03T14:10:55;20.70;73.90
1956;DHT22;978;48.314;11.562;2023-05-03T14:13:26;20.70;73.90
1956;DHT22;978;48.314;11.562;2023-05-03T14:15:56;20.70;73.90
1956;DHT22;978;48.314;11.562;2023-05-03T14:18:25;20.70;73.80
1956;DHT22;978;48.314;11.562;2023-05-03T14:20:53;20.70;73.80
1956;DHT22;978;48.314;11.562;2023-05-03T14:23:25;20.70;73.80
1956;DHT22;978;48.314;11.562;2023-05-03T14:25:52;20.70;73.80
1956;DHT22;978;48.314;11.562;2023-05-03T14:28:21;20.70;73.80
1956;DHT22;978;48.314;11.562;2023-05-03T14:30:50;20.70;74.10
1956;DHT22;978;48.314;11.562;2023-05-03T14:33:17;20.70;73.80
1956;DHT22;978;48.314;11.562;2023-05-03T14:35:44;20.70;73.80
1956;DHT22;978;48.314;11.562;2023-05-03T14:38:12;20.70;73.80
1956;DHT22;978;48.314;11.562;2023-05-03T14:40:39;20.70;73.80
1956;DHT22;978;48.314;11.562;2023-05-03T14:43:06;20.70;73.80
1956;DHT22;978;48.314;11.562;2023-05-03T14:45:33;20.70;73.80
1956;DHT22;978;48.314;11.562;2023-05-03T14:48:02;20.70;73.80
1956;DHT22;978;48.314;11.562;2023-05-03T14:50:31;20.70;73.80
1956;DHT22;978;48.314;11.562;2023-05-03T14:52:59;20.70;73.80
1956;DHT22;978;48.314;11.562;2023-05-03T14:55:28;20.70;73.80
1956;DHT22;978;48.314;11.562;2023-05-03T14:57:56;20.70;73.80
1956;DHT22;978;48.314;11.562;2023-05-03T15:00:23;20.70;73.80
1956;DHT22;978;48.314;11.562;2023-05-03T15:02:51;20.70;73.80
1956;DHT22;978;48.314;11.562;2023-05-03T15:05:19;20.70;73.80
1956;DHT22;978;48.314;11.562;2023-05-03T15:07:46;20.70;73.80
1956;DHT22;978;48.314;11.562;2023-05-03T15:10:12;20.70;73.80
1956;DHT22;978;48.314;11.562;2023-05-03T15:12:41;20.70;73.80
1956;DHT22;978;48.314;11.562;2023-05-03T15:15:08;20.70;73.80
1956;DHT22;978;48.314;11.562;2023-05-03T15:17:36;20.70;73.80
1956;DHT22;978;48.314;11.562;2023-05-03T15:20:04;20.70;73.80
1956;DHT22;978;48.314;11.562;2023-05-03T15:22:32;20.70;73.80
1956;DHT22;978;48.314;11.562;2023-05-03T15:25:00;20.70;73.80
1956;DHT22;978;48.314;11.562;2023-05-03T15:27:28;20.70;73.80
1956;DHT22;978;48.314;11.562;2023-05-03T15:29:58;20.70;73.80
1956;DHT22;978;48.314;11.562;2023-05-03T15:32:25;20.80;73.80
1956;DHT22;978;48.314;11.562;2023-05-03T15:34:55;20.70;74.40
1956;DHT22;978;48.314;11.562;2023-05-03T15:37:33;20.70;73.80
1956;DHT22;978;48.314;11.562;2023-05-03T15:40:02;20.70;73.80
1956;DHT22;978;48.314;11.562;2023-05-03T15:42:30;20.70;73.80
1956;DHT22;978;48.314;11.562;2023-05-03T15:45:02;20.70;73.80
1956;DHT22;978;48.314;11.562;2023-05-03T15:47:30;20.70;73.80
1956;DHT22;978;48.314;11.562;2023-05-03T15:50:00;20.70;73.80
1956;DHT22;978;48.314;11.562;2023-05-03T15:52:30;20.70;73.80
1956;DHT22;978;48.314;11.562;2023-05-03T15:55:00;20.70;73.80
1956;DHT22;978;48.314;11.562;2023-05-03T15:57:31;20.70;73.80
1956;DHT22;978;48.314;11.562;2023-05-03T16:00:05;20.70;73.80
1956;DHT22;978;48.314;11.562;2023-05-03T16:02:37;20.70;73.80
1956;DHT22;978;48.314;11.562;2023-05-03T16:05:08;20.70;73.80
1956;DHT22;978;48.314;11.562;2023-05-03T16:07:36;20.70;73.80
1956;DHT22;978;48.314;11.562;2023-05-03T16:10:03;20.70;73.80
1956;DHT22;978;48.314;11.562;2023-05-03T16:12:31;20.70;73.80
1956;DHT22;978;48.314;11.562;2023-05-03T16:15:04;20.70;73.80
1956;DHT22;978;48.314;11.562;2023-05-03T16:17:32;20.70;73.80
1956;DHT22;978;48.314;11.562;2023-05-03T16:20:03;20.70;73.80
1956;DHT22;978;48.314;11.562;2023-05-03T16:22:32;20.70;73.70
1956;DHT22;978;48.314;11.562;2023-05-03T16:25:00;20.70;73.70
1956;DHT22;978;48.314;11.562;2023-05-03T16:27:26;20.70;73.70
1956;DHT22;978;48.314;11.562;2023-05-03T16:29:53;20.70;73.80
1956;DHT22;978;48.314;11.562;2023-05-03T16:32:21;20.70;73.70
1956;DHT22;978;48.314;11.562;2023-05-03T16:34:48;20.70;73.70
1956;DHT22;978;48.314;11.562;2023-05-03T16:37:16;20.70;73.70
1956;DHT22;978;48.314;11.562;2023-05-03T16:39:43;20.70;73.70
1956;DHT22;978;48.314;11.562;2023-05-03T16:42:10;20.70;73.70
1956;DHT22;978;48.314;11.562;2023-05-03T16:44:38;20.70;73.70
1956;DHT22;978;48.314;11.562;2023-05-03T16:47:04;20.70;73.70
1956;DHT22;978;48.314;11.562;2023-05-03T16:49:33;20.70;73.70
1956;DHT22;978;48.314;11.562;2023-05-03T16:52:05;20.70;73.70
1956;DHT22;978;48.314;11.562;2023-05-03T16:54:35;20.70;73.70
1956;DHT22;978;48.314;11.562;2023-05-03T16:57:03;20.70;73.70
1956;DHT22;978;48.314;11.562;2023-05-03T16:59:30;20.70;73.70
1956;DHT22;978;48.314;11.562;2023-05-03T17:01:59;20.70;73.70
1956;DHT22;978;48.314;11.562;2023-05-03T17:04:26;20.70;73.70
1956;DHT22;978;48.314;11.562;2023-05-03T17:06:55;20.70;73.70
1956;DHT22;978;48.314;11.562;2023-05-03T17:09:22;20.70;73.70
1956;DHT22;978;48.314;11.562;2023-05-03T17:11:48;20.70;73.70
1956;DHT22;978;48.314;11.562;2023-05-03T17:14:15;20.70;73.70
1956;DHT22;978;48.314;11.562;2023-05-03T17:16:42;20.70;73.70
1956;DHT22;978;48.314;11.562;2023-05-03T17:19:11;20.70;73.70
1956;DHT22;978;48.314;11.562;2023-05-03T17:21:39;20.70;73.70
1956;DHT22;978;48.314;11.562;2023-05-03T17:24:09;20.70;73.70
1956;DHT22;978;48.314;11.562;2023-05-03T17:26:37;20.70;73.70
1956;DHT22;978;48.314;11.562;2023-05-03T17:29:04;20.70;73.60
1956;DHT22;978;48.314;11.562;2023-05-03T17:31:33;20.70;73.70
1956;DHT22;978;48.314;11.562;2023-05-03T17:34:00;20.70;73.70
1956;DHT22;978;48.314;11.562;2023-05-03T17:36:26;20.70;73.70
1956;DHT22;978;48.314;11.562;2023-05-03T17:38:53;20.70;73.70
1956;DHT22;978;48.314;11.562;2023-05-03T17:41:21;20.70;73.70
1956;DHT22;978;48.314;11.562;2023-05-03T17:43:48;20.70;73.60
1956;DHT22;978;48.314;11.562;2023-05-03T17:46:15;20.80;73.70
1956;DHT22;978;48.314;11.562;2023-05-03T17:48:42;20.70;73.70
1956;DHT22;978;48.314;11.562;2023-05-03T17:51:10;20.70;73.70
1956;DHT22;978;48.314;11.562;2023-05-03T17:53:40;20.70;73.70
1956;DHT22;978;48.314;11.562;2023-05-03T17:56:16;20.70;73.70
1956;DHT22;978;48.314;11.562;2023-05-03T17:58:44;20.70;73.60
1956;DHT22;978;48.314;11.562;2023-05-03T18:01:13;20.70;73.60
1956;DHT22;978;48.314;11.562;2023-05-03T18:03:42;20.70;73.60
1956;DHT22;978;48.314;11.562;2023-05-03T18:06:11;20.70;73.60
1956;DHT22;978;48.314;11.562;2023-05-03T18:08:41;20.70;73.60
1956;DHT22;978;48.314;11.562;2023-05-03T18:11:09;20.70;73.60
1956;DHT22;978;48.314;11.562;2023-05-03T18:13:40;20.70;73.60
1956;DHT22;978;48.314;11.562;2023-05-03T18:16:09;20.70;73.60
1956;DHT22;978;48.314;11.562;2023-05-03T18:18:37;20.70;73.60
1956;DHT22;978;48.314;11.562;2023-05-03T18:21:04;20.70;73.60
1956;DHT22;978;48.314;11.562;2023-05-03T18:23:31;20.70;73.60
1956;DHT22;978;48.314;11.562;2023-05-03T18:25:59;20.70;73.60
1956;DHT22;978;48.314;11.562;2023-05-03T18:28:26;20.70;73.60
1956;DHT22;978;48.314;11.562;2023-05-03T18:30:53;20.70;73.60
1956;DHT22;978;48.314;11.562;2023-05-03T18:33:22;20.70;73.60
1956;DHT22;978;48.314;11.562;2023-05-03T18:35:49;20.70;73.60
1956;DHT22;978;48.314;11.562;2023-05-03T18:38:17;20.70;73.60
1956;DHT22;978;48.314;11.562;2023-05-03T18:40:45;20.70;73.60
1956;DHT22;978;48.314;11.562;2023-05-03T18:43:13;20.70;73.60
1956;DHT22;978;48.314;11.562;2023-05-03T18:45:41;20.70;73.60
1956;DHT22;978;48.314;11.562;2023-05-03T18:48:11;20.70;73.60
1956;DHT22;978;48.314;11.562;2023-05-03T18:50:41;20.70;73.50
1956;DHT22;978;48.314;11.562;2023-05-03T18:53:09;20.70;73.50
1956;DHT22;978;48.314;11.562;2023-05-03T18:55:40;20.70;73.60
1956;DHT22;978;48.314;11.562;2023-05-03T18:58:08;20.70;73.60
1956;DHT22;978;48.314;11.562;2023-05-03T19:00:35;20.70;73.50